Time;durP1;ratioP1;P1;durP2;ratioP2;P2;SDS_P1;SDS_P2;PMS_P1;PMS_P2;Temp;Humidity;BMP_temperature;BMP_pressure;BME280_temperature;BME280_humidity;BME280_pressure;Samples;Min_cycle;Max_cycle;Signal;HPM_P1;HPM_P2
2022/12/19 00:01:35;;;;;;;12.00;7.30;;;;;;;0.23;67.96;101600.66;105617;1295;59746;-76
2022/12/19 00:04:05;;;;;;;11.60;7.30;;;;;;;0.26;68.02;101605.23;105517;1291;59135;-76
2022/12/19 00:06:34;;;;;;;12.50;7.30;;;;;;;0.29;68.02;101600.02;105648;1290;73988;-76
2022/12/19 00:09:01;;;;;;;12.80;7.10;;;;;;;0.32;67.98;101596.00;105714;1284;69576;-76
2022/12/19 00:11:28;;;;;;;11.40;7.10;;;;;;;0.34;68.02;101600.08;105630;1291;70305;-76
2022/12/19 00:13:55;;;;;;;13.20;7.40;;;;;;;0.35;67.99;101603.99;105715;1291;60942;-76
2022/12/19 00:16:24;;;;;;;12.50;7.40;;;;;;;0.39;68.04;101599.26;105731;1291;60159;-76
2022/12/19 00:18:53;;;;;;;13.40;7.50;;;;;;;0.44;68.32;101587.70;105679;1295;72629;-76
2022/12/19 00:21:23;;;;;;;12.60;7.20;;;;;;;0.46;68.43;101586.35;105515;1294;69675;-77
2022/12/19 00:23:50;;;;;;;11.10;7.00;;;;;;;0.46;68.32;101585.29;105660;1290;71106;-76
2022/12/19 00:26:22;;;;;;;12.50;7.50;;;;;;;0.49;68.41;101586.55;105676;1292;61121;-76
2022/12/19 00:28:52;;;;;;;11.90;7.30;;;;;;;0.52;68.33;101582.73;105631;1285;61330;-76
2022/12/19 00:31:20;;;;;;;12.50;7.20;;;;;;;0.54;68.27;101581.52;105564;1286;72638;-76
2022/12/19 00:33:48;;;;;;;13.10;7.40;;;;;;;0.58;68.41;101576.80;105760;1292;69963;-76
2022/12/19 00:36:33;;;;;;;11.80;7.00;;;;;;;0.63;68.35;101570.94;105666;1291;73362;-76
2022/12/19 00:39:01;;;;;;;12.90;7.70;;;;;;;0.65;68.41;101562.80;105593;1294;60397;-76
2022/12/19 00:41:34;;;;;;;12.80;7.40;;;;;;;0.67;68.50;101563.39;105677;1290;58865;-76
2022/12/19 00:44:04;;;;;;;13.20;7.70;;;;;;;0.68;68.83;101556.35;105537;1294;73623;-77
2022/12/19 00:46:34;;;;;;;14.20;8.10;;;;;;;0.70;68.96;101558.34;105622;1287;70784;-76
2022/12/19 00:49:01;;;;;;;13.00;7.70;;;;;;;0.73;69.16;101559.74;105589;1293;73585;-77
2022/12/19 00:51:30;;;;;;;12.30;7.80;;;;;;;0.76;69.35;101557.81;105544;1293;59517;-76
2022/12/19 00:53:57;;;;;;;13.10;7.50;;;;;;;0.81;69.34;101556.11;105656;1293;60145;-77
2022/12/19 00:56:27;;;;;;;14.00;8.30;;;;;;;0.82;69.66;101552.23;105650;1293;73921;-76
2022/12/19 00:58:55;;;;;;;15.10;8.60;;;;;;;0.86;69.95;101541.55;105511;1288;69479;-76
2022/12/19 01:01:33;;;;;;;13.90;8.50;;;;;;;0.90;70.25;101547.41;105721;1292;72742;-76
2022/12/19 01:04:02;;;;;;;12.80;8.10;;;;;;;0.92;70.65;101546.05;105688;1288;59784;-76
2022/12/19 01:06:49;;;;;;;14.60;8.80;;;;;;;0.95;71.28;101545.35;105681;1290;59275;-76
2022/12/19 01:09:17;;;;;;;14.10;8.60;;;;;;;0.96;71.56;101543.19;105720;1292;73226;-76
2022/12/19 01:14:28;;;;;;;15.50;8.70;;;;;;;0.97;72.36;101533.23;105758;1283;71611;-76
2022/12/19 01:16:55;;;;;;;14.20;8.60;;;;;;;0.99;72.65;101530.34;105712;1292;58442;-75
2022/12/19 01:19:21;;;;;;;15.90;8.60;;;;;;;1.00;72.94;101535.34;105759;1292;58324;-76
2022/12/19 01:21:48;;;;;;;14.50;9.10;;;;;;;0.99;73.42;101543.55;105663;1291;58326;-76
2022/12/19 01:24:14;;;;;;;13.70;8.40;;;;;;;1.02;73.50;101544.95;105575;1287;58147;-75
2022/12/19 01:26:44;;;;;;;14.60;8.70;;;;;;;1.01;74.23;101545.71;105605;1294;72512;-75
2022/12/19 01:29:11;;;;;;;14.50;8.70;;;;;;;0.98;74.47;101543.94;105682;1291;59666;-75
2022/12/19 01:31:37;;;;;;;17.40;9.20;;;;;;;0.98;74.88;101544.50;105741;1291;58386;-75
2022/12/19 01:34:04;;;;;;;16.80;9.70;;;;;;;0.98;75.02;101539.77;105749;1291;73161;-75
2022/12/19 01:36:30;;;;;;;15.50;8.90;;;;;;;0.99;75.16;101539.52;105745;1290;70859;-75
2022/12/19 01:38:57;;;;;;;16.30;9.70;;;;;;;0.97;75.76;101535.32;105629;1285;71676;-75
2022/12/19 01:41:24;;;;;;;16.80;9.60;;;;;;;0.94;76.36;101530.13;105723;1291;61411;-75
2022/12/19 01:43:53;;;;;;;16.00;9.60;;;;;;;0.92;76.63;101529.20;105568;1292;61383;-75
2022/12/19 01:46:35;;;;;;;16.00;8.60;;;;;;;0.91;76.96;101519.30;105739;1291;71883;-75
2022/12/19 01:49:02;;;;;;;16.70;9.90;;;;;;;0.93;76.87;101519.02;105685;1298;69701;-75
2022/12/19 01:51:51;;;;;;;15.90;9.00;;;;;;;0.94;77.62;101514.25;105782;1291;71334;-75
2022/12/19 01:54:24;;;;;;;15.00;9.00;;;;;;;0.95;77.48;101508.07;105763;1284;59682;-75
2022/12/19 01:56:54;;;;;;;16.50;9.70;;;;;;;0.98;77.73;101509.14;105734;1290;58639;-75
2022/12/19 01:59:34;;;;;;;15.40;9.50;;;;;;;1.01;77.78;101508.64;105669;1291;73851;-75
2022/12/19 02:02:20;;;;;;;16.50;9.30;;;;;;;0.99;78.48;101509.76;105698;1292;71246;-75
2022/12/19 02:04:46;;;;;;;17.00;10.00;;;;;;;0.99;78.63;101508.19;105567;1294;70998;-75
2022/12/19 02:07:17;;;;;;;15.10;9.10;;;;;;;1.00;78.31;101512.14;105777;1292;58190;-75
2022/12/19 02:09:45;;;;;;;15.20;9.50;;;;;;;1.03;78.55;101501.90;105701;1284;59088;-75
2022/12/19 02:12:13;;;;;;;15.50;9.70;;;;;;;1.04;78.65;101498.31;105719;1284;73700;-75
2022/12/19 02:14:40;;;;;;;17.00;9.40;;;;;;;1.05;78.78;101495.84;105719;1292;71263;-75
2022/12/19 02:17:07;;;;;;;18.70;10.20;;;;;;;1.07;78.82;101487.89;105718;1291;71117;-75
2022/12/19 02:19:55;;;;;;;16.50;9.40;;;;;;;1.08;79.11;101477.53;105709;1292;58188;-75
2022/12/19 02:22:43;;;;;;;15.50;9.30;;;;;;;1.08;79.33;101466.73;105790;1291;58476;-75
2022/12/19 02:25:25;;;;;;;15.60;9.80;;;;;;;1.11;79.36;101465.14;105566;1293;72086;-75
2022/12/19 02:27:57;;;;;;;15.10;8.80;;;;;;;1.13;79.64;101465.55;105757;1291;70909;-75
2022/12/19 02:30:44;;;;;;;16.70;9.90;;;;;;;1.10;79.58;101460.84;105782;1284;72739;-75
2022/12/19 02:33:42;;;;;;;17.50;9.40;;;;;;;1.10;79.73;101454.22;105778;1277;59626;-75
2022/12/19 02:36:19;;;;;;;15.40;9.90;;;;;;;1.07;80.01;101450.26;105769;1292;58097;-75
2022/12/19 02:39:04;;;;;;;17.00;10.00;;;;;;;1.05;80.13;101451.39;105764;1291;73328;-75
2022/12/19 02:41:51;;;;;;;17.20;9.90;;;;;;;1.06;79.96;101455.17;105741;1291;69682;-75
2022/12/19 02:44:28;;;;;;;15.90;9.80;;;;;;;1.08;79.97;101450.20;105744;1292;72515;-75
2022/12/19 02:46:56;;;;;;;15.30;9.20;;;;;;;1.09;80.03;101446.48;105704;1292;61231;-75
2022/12/19 02:49:23;;;;;;;13.90;9.00;;;;;;;1.09;80.15;101445.06;105792;1285;60265;-75
2022/12/19 02:51:56;;;;;;;13.60;9.00;;;;;;;1.11;79.96;101450.84;105717;1285;72579;-75
2022/12/19 02:54:23;;;;;;;15.70;9.50;;;;;;;1.12;79.94;101447.46;105563;1294;58527;-76
2022/12/19 02:57:24;;;;;;;15.20;9.10;;;;;;;1.14;80.14;101445.64;105667;1292;71805;-75
2022/12/19 03:00:05;;;;;;;15.60;9.10;;;;;;;1.14;80.02;101442.34;105746;1284;60108;-75
2022/12/19 03:02:48;;;;;;;15.30;9.10;;;;;;;1.14;80.36;101438.48;105707;1291;59595;-75
2022/12/19 03:05:29;;;;;;;15.50;9.50;;;;;;;1.13;80.28;101434.88;105626;1294;73206;-75
2022/12/19 03:08:14;;;;;;;17.20;10.00;;;;;;;1.15;80.37;101431.11;105743;1291;69821;-75
2022/12/19 03:11:07;;;;;;;15.20;9.60;;;;;;;1.16;80.54;101430.84;105750;1292;71454;-75
2022/12/19 03:13:42;;;;;;;14.70;8.30;;;;;;;1.18;80.26;101426.01;105690;1291;61385;-76
2022/12/19 03:16:11;;;;;;;13.40;8.60;;;;;;;1.20;80.20;101425.04;105696;1291;58660;-75
2022/12/19 03:18:38;;;;;;;15.80;9.00;;;;;;;1.22;80.16;101424.40;105581;1292;71906;-76
2022/12/19 03:21:16;;;;;;;13.90;8.80;;;;;;;1.24;80.40;101424.08;105734;1291;70929;-76
2022/12/19 03:23:44;;;;;;;13.90;8.00;;;;;;;1.29;80.11;101419.63;105673;1295;72454;-76
2022/12/19 03:26:18;;;;;;;14.90;8.20;;;;;;;1.30;80.37;101423.02;105727;1284;59987;-76
2022/12/19 03:28:51;;;;;;;16.90;9.40;;;;;;;1.33;80.12;101427.55;105725;1291;61524;-76
2022/12/19 03:31:21;;;;;;;15.00;9.10;;;;;;;1.36;80.20;101428.06;105547;1294;72222;-76
2022/12/19 03:33:53;;;;;;;15.10;8.60;;;;;;;1.38;80.06;101424.79;105649;1287;71373;-76
2022/12/19 03:36:24;;;;;;;14.20;9.20;;;;;;;1.41;80.15;101413.43;105663;1292;71306;-76
2022/12/19 03:38:52;;;;;;;14.00;9.00;;;;;;;1.42;80.19;101407.59;105628;1291;61361;-76
2022/12/19 03:43:07;;;;;;;15.50;9.40;;;;;;;1.44;80.25;101407.00;105538;1294;60317;-76
2022/12/19 03:44:10;;;;;;;15.50;9.20;;;;;;;1.45;80.34;101406.55;105737;1291;72920;-76
2022/12/19 03:46:44;;;;;;;15.90;9.70;;;;;;;1.46;80.17;101403.85;105746;1298;71097;-76
2022/12/19 03:49:12;;;;;;;16.50;9.40;;;;;;;1.48;80.55;101399.59;105624;1292;72707;-76
2022/12/19 03:51:58;;;;;;;16.90;9.90;;;;;;;1.49;80.56;101394.10;105741;1285;59289;-76
2022/12/19 03:54:33;;;;;;;16.40;9.40;;;;;;;1.51;80.51;101401.61;105743;1291;60215;-76
2022/12/19 03:57:07;;;;;;;16.20;9.90;;;;;;;1.54;80.16;101400.91;105690;1291;71711;-75
2022/12/19 03:59:40;;;;;;;16.00;9.70;;;;;;;1.59;80.26;101400.24;105584;1287;71164;-75
2022/12/19 04:02:08;;;;;;;16.50;10.00;;;;;;;1.63;80.20;101391.06;105728;1292;71152;-75
2022/12/19 04:04:39;;;;;;;16.40;9.80;;;;;;;1.66;80.33;101382.34;105698;1290;59765;-75
2022/12/19 04:07:06;;;;;;;16.00;9.70;;;;;;;1.69;80.38;101377.84;105697;1294;58796;-75
2022/12/19 04:09:34;;;;;;;14.40;9.10;;;;;;;1.70;80.25;101375.87;105669;1292;74435;-75
2022/12/19 04:12:04;;;;;;;13.70;8.40;;;;;;;1.70;79.85;101374.10;105648;1285;69846;-75
2022/12/19 04:14:33;;;;;;;15.60;9.60;;;;;;;1.69;79.94;101367.00;105562;1295;72687;-75
2022/12/19 04:17:40;;;;;;;15.70;9.60;;;;;;;1.70;80.05;101363.30;105693;1287;59761;-75
2022/12/19 04:20:12;;;;;;;15.80;9.30;;;;;;;1.68;80.38;101352.65;105622;1294;58580;-75
2022/12/19 04:22:58;;;;;;;16.60;10.30;;;;;;;1.65;80.55;101358.39;105660;1290;72405;-75
2022/12/19 04:25:29;;;;;;;14.10;9.00;;;;;;;1.65;80.86;101354.54;105579;1293;72531;-75
2022/12/19 04:28:03;;;;;;;15.00;9.20;;;;;;;1.67;80.68;101346.58;105737;1290;71194;-75
2022/12/19 04:30:31;;;;;;;15.50;9.60;;;;;;;1.67;80.92;101346.23;105557;1292;61158;-75
2022/12/19 04:33:02;;;;;;;14.60;9.00;;;;;;;1.68;80.80;101350.34;105707;1291;58268;-75
2022/12/19 04:35:28;;;;;;;16.00;9.70;;;;;;;1.69;80.58;101342.41;105569;1292;72325;-75
2022/12/19 04:37:55;;;;;;;15.50;9.70;;;;;;;1.69;80.84;101339.65;105774;1292;68801;-75
2022/12/19 04:40:21;;;;;;;16.30;10.60;;;;;;;1.68;80.69;101336.39;105725;1291;72727;-75
2022/12/19 04:42:48;;;;;;;15.20;9.00;;;;;;;1.71;80.38;101326.40;105733;1291;58253;-75
2022/12/19 04:45:15;;;;;;;17.50;10.40;;;;;;;1.73;80.48;101317.94;105791;1291;58290;-75
2022/12/19 04:47:42;;;;;;;15.90;10.10;;;;;;;1.75;80.44;101323.01;105777;1291;73302;-75
2022/12/19 04:50:09;;;;;;;15.90;9.80;;;;;;;1.78;80.56;101317.42;105715;1291;58069;-76
2022/12/19 04:52:35;;;;;;;17.00;9.80;;;;;;;1.79;80.27;101318.89;105615;1291;72408;-75
2022/12/19 04:55:01;;;;;;;14.60;9.70;;;;;;;1.79;80.50;101316.64;105767;1288;58652;-75
2022/12/19 04:57:29;;;;;;;15.60;10.00;;;;;;;1.79;80.23;101309.64;105760;1298;58227;-75
2022/12/19 04:59:56;;;;;;;15.90;9.40;;;;;;;1.79;80.08;101303.58;105750;1298;73560;-75
2022/12/19 05:02:23;;;;;;;14.90;9.20;;;;;;;1.79;79.93;101300.27;105717;1291;70098;-76
2022/12/19 05:04:50;;;;;;;14.50;9.50;;;;;;;1.79;79.67;101289.11;105562;1294;73386;-76
2022/12/19 05:07:20;;;;;;;15.70;10.10;;;;;;;1.77;79.24;101278.21;105664;1294;60259;-76
2022/12/19 05:09:46;;;;;;;16.60;10.10;;;;;;;1.76;79.56;101276.02;105757;1291;58835;-75
2022/12/19 05:12:13;;;;;;;17.30;10.30;;;;;;;1.78;79.60;101275.55;105715;1290;58189;-76
2022/12/19 05:14:39;;;;;;;15.90;9.70;;;;;;;1.79;79.68;101278.66;105754;1291;70352;-76
2022/12/19 05:17:06;;;;;;;18.70;10.70;;;;;;;1.81;79.57;101272.05;105729;1292;58678;-75
2022/12/19 05:19:32;;;;;;;17.10;10.00;;;;;;;1.83;79.74;101273.48;105777;1293;58169;-76
2022/12/19 05:21:58;;;;;;;15.50;9.60;;;;;;;1.84;79.91;101275.17;105723;1292;58283;-76
2022/12/19 05:24:26;;;;;;;15.50;9.40;;;;;;;1.85;79.85;101266.00;105776;1298;74216;-76
2022/12/19 05:26:52;;;;;;;16.00;9.50;;;;;;;1.85;80.08;101253.63;105743;1292;58127;-76
2022/12/19 05:29:19;;;;;;;15.20;9.20;;;;;;;1.85;79.95;101250.67;105721;1292;58480;-76
2022/12/19 05:31:45;;;;;;;16.10;8.80;;;;;;;1.85;79.95;101247.50;105704;1290;58264;-76
2022/12/19 05:34:11;;;;;;;16.40;9.90;;;;;;;1.87;80.15;101248.27;105710;1298;58199;-76
2022/12/19 05:36:38;;;;;;;17.00;10.20;;;;;;;1.87;80.40;101245.86;105760;1291;58599;-75
2022/12/19 05:39:04;;;;;;;17.10;10.00;;;;;;;1.87;80.59;101240.06;105742;1290;58707;-75
2022/12/19 05:41:31;;;;;;;16.10;10.00;;;;;;;1.87;80.59;101240.94;105718;1290;58393;-75
2022/12/19 05:43:57;;;;;;;16.10;9.90;;;;;;;1.86;80.68;101243.98;105695;1290;58355;-75
2022/12/19 05:46:24;;;;;;;15.10;9.60;;;;;;;1.84;80.89;101242.33;105682;1290;58590;-75
2022/12/19 05:48:51;;;;;;;15.00;9.00;;;;;;;1.82;80.77;101242.29;105711;1292;72793;-75
2022/12/19 05:51:18;;;;;;;17.40;10.80;;;;;;;1.78;81.16;101240.31;105741;1291;68727;-75
2022/12/19 05:53:45;;;;;;;18.10;10.20;;;;;;;1.77;81.35;101239.16;105669;1295;72830;-75
2022/12/19 05:56:20;;;;;;;14.60;8.80;;;;;;;1.74;81.39;101236.41;105708;1290;59602;-76
2022/12/19 05:58:47;;;;;;;16.90;10.50;;;;;;;1.70;81.64;101238.82;105690;1293;58800;-75
2022/12/19 06:01:18;;;;;;;15.60;8.80;;;;;;;1.68;81.89;101242.04;105693;1292;72458;-75
2022/12/19 06:03:46;;;;;;;17.80;10.10;;;;;;;1.62;82.45;101235.64;105701;1292;70115;-75
2022/12/19 06:06:15;;;;;;;17.00;10.30;;;;;;;1.61;82.39;101232.60;105697;1293;72538;-76
2022/12/19 06:08:42;;;;;;;17.70;10.40;;;;;;;1.58;82.50;101222.48;105732;1291;60286;-74
2022/12/19 06:11:11;;;;;;;16.50;9.30;;;;;;;1.58;82.91;101216.90;105685;1290;62182;-76
2022/12/19 06:13:38;;;;;;;17.40;11.20;;;;;;;1.55;83.05;101205.23;105721;1291;73485;-75
2022/12/19 06:16:11;;;;;;;16.00;9.40;;;;;;;1.54;83.86;101203.40;105594;1298;71086;-76
2022/12/19 06:18:40;;;;;;;16.70;10.60;;;;;;;1.54;84.04;101198.69;105756;1291;71100;-75
2022/12/19 06:21:19;;;;;;;17.30;10.00;;;;;;;1.55;84.96;101197.59;105528;1293;59718;-76
2022/12/19 06:23:46;;;;;;;17.10;9.60;;;;;;;1.58;85.05;101198.09;105784;1290;60175;-76
2022/12/19 06:26:15;;;;;;;18.20;9.80;;;;;;;1.60;85.07;101203.31;105674;1292;74279;-76
2022/12/19 06:28:46;;;;;;;16.60;10.40;;;;;;;1.63;85.15;101209.05;105675;1291;72087;-76
2022/12/19 06:31:13;;;;;;;17.00;10.20;;;;;;;1.66;85.29;101208.55;105615;1298;71365;-75
2022/12/19 06:33:40;;;;;;;20.10;10.40;;;;;;;1.70;85.26;101200.10;105713;1294;59911;-76
2022/12/19 06:36:12;;;;;;;18.10;10.40;;;;;;;1.71;85.46;101189.19;105594;1296;59424;-75
2022/12/19 06:38:39;;;;;;;18.00;10.70;;;;;;;1.73;85.58;101188.17;105526;1290;188633;-75
2022/12/19 06:43:55;;;;;;;18.00;10.70;;;;;;;1.80;85.58;101190.49;105709;1292;70710;-74
2022/12/19 06:46:22;;;;;;;17.60;9.90;;;;;;;1.84;85.66;101190.21;105683;1289;58714;-74
2022/12/19 06:48:49;;;;;;;16.60;10.00;;;;;;;1.86;85.95;101183.95;105789;1288;59384;-74
2022/12/19 06:51:16;;;;;;;18.70;10.90;;;;;;;1.89;86.14;101185.54;105740;1284;72426;-75
2022/12/19 06:53:42;;;;;;;17.20;10.30;;;;;;;1.92;86.17;101191.04;105741;1291;58148;-75
2022/12/19 06:56:12;;;;;;;17.90;10.70;;;;;;;1.93;86.20;101197.41;105679;1290;58302;-75
2022/12/19 06:58:38;;;;;;;17.80;10.70;;;;;;;1.94;86.24;101194.55;105666;1290;60892;-74
2022/12/19 07:01:05;;;;;;;17.60;11.00;;;;;;;1.96;86.40;101190.76;105724;1291;58947;-74
2022/12/19 07:03:38;;;;;;;17.30;10.30;;;;;;;2.00;86.45;101193.65;105713;1282;71896;-75
2022/12/19 07:06:06;;;;;;;18.00;10.60;;;;;;;2.00;86.59;101193.08;105667;1294;69755;-75
2022/12/19 07:08:32;;;;;;;18.60;11.20;;;;;;;2.03;86.39;101193.40;105676;1290;72915;-75
2022/12/19 07:10:58;;;;;;;19.10;11.60;;;;;;;2.04;86.75;101192.48;105756;1292;58657;-75
2022/12/19 07:13:26;;;;;;;17.20;9.80;;;;;;;2.04;86.99;101195.96;105783;1292;58040;-75
2022/12/19 07:15:55;;;;;;;18.10;11.00;;;;;;;2.02;86.98;101194.90;105702;1292;73857;-75
2022/12/19 07:18:22;;;;;;;17.80;10.60;;;;;;;2.05;87.15;101195.04;105116;1291;71137;-75
2022/12/19 07:20:48;;;;;;;19.70;11.70;;;;;;;2.06;86.99;101189.00;105723;1290;58513;-75
2022/12/19 07:23:19;;;;;;;19.80;11.80;;;;;;;2.08;87.31;101186.50;105635;1287;58632;-75
2022/12/19 07:25:46;;;;;;;22.40;11.60;;;;;;;2.09;87.58;101183.63;105587;1292;59741;-75
2022/12/19 07:28:13;;;;;;;19.80;11.50;;;;;;;2.08;87.72;101185.75;105670;1292;58186;-72
2022/12/19 07:30:40;;;;;;;37.20;22.70;;;;;;;2.08;88.94;101191.52;105599;1284;71461;-72
2022/12/19 07:33:06;;;;;;;21.70;13.40;;;;;;;2.14;89.45;101184.66;105688;1292;58560;-72
2022/12/19 07:35:36;;;;;;;29.70;18.00;;;;;;;2.18;89.13;101177.73;105587;1291;59751;-72
2022/12/19 07:38:05;;;;;;;19.10;11.30;;;;;;;2.19;89.07;101179.89;105706;1291;58863;-72
2022/12/19 07:40:32;;;;;;;19.50;11.60;;;;;;;2.19;89.26;101177.85;105671;1292;72301;-72
2022/12/19 07:43:04;;;;;;;19.60;11.80;;;;;;;2.20;89.69;101173.07;105596;1295;70814;-72
2022/12/19 07:45:31;;;;;;;18.90;11.20;;;;;;;2.20;90.25;101174.63;105672;1291;70623;-72
2022/12/19 07:48:02;;;;;;;20.70;11.50;;;;;;;2.21;90.43;101174.92;105746;1294;59914;-72
2022/12/19 07:50:29;;;;;;;27.70;16.70;;;;;;;2.23;90.77;101174.59;105655;1288;59038;-72
2022/12/19 07:52:57;;;;;;;27.20;16.20;;;;;;;2.25;90.40;101179.48;105752;1292;72404;-73
2022/12/19 07:55:24;;;;;;;22.50;13.80;;;;;;;2.26;90.64;101179.80;105722;1290;68942;-72
2022/12/19 07:57:50;;;;;;;20.50;11.50;;;;;;;2.29;90.66;101183.75;105701;1292;72504;-72
2022/12/19 08:00:17;;;;;;;25.10;15.80;;;;;;;2.29;91.14;101183.60;105698;1291;58683;-72
2022/12/19 08:02:43;;;;;;;35.60;22.60;;;;;;;2.31;91.53;101181.70;105742;1297;59288;-72
2022/12/19 08:05:11;;;;;;;25.10;14.30;;;;;;;2.34;92.23;101184.10;105596;1291;73270;-73
2022/12/19 08:07:37;;;;;;;23.80;13.50;;;;;;;2.37;91.89;101179.89;105734;1284;58546;-73
2022/12/19 08:10:05;;;;;;;20.20;11.40;;;;;;;2.38;92.60;101183.08;105704;1290;58461;-72
2022/12/19 08:12:33;;;;;;;107.90;73.60;;;;;;;2.38;92.45;101182.61;105727;1292;60354;-73
2022/12/19 08:14:59;;;;;;;22.70;13.80;;;;;;;2.37;92.90;101182.64;105571;1294;60428;-73
2022/12/19 08:17:25;;;;;;;21.90;13.40;;;;;;;2.33;92.88;101180.29;105654;1293;58527;-73
2022/12/19 08:19:52;;;;;;;21.80;13.20;;;;;;;2.27;93.45;101180.40;105733;1284;58749;-72
2022/12/19 08:22:18;;;;;;;18.90;12.30;;;;;;;2.24;93.86;101175.37;105731;1292;58603;-73
2022/12/19 08:24:45;;;;;;;20.80;12.80;;;;;;;2.22;94.35;101176.25;105694;1298;58172;-73
2022/12/19 08:27:11;;;;;;;23.00;13.80;;;;;;;2.18;94.78;101174.95;105784;1291;58645;-73
2022/12/19 08:29:38;;;;;;;22.70;13.40;;;;;;;2.18;95.21;101175.13;105777;1290;58574;-73
2022/12/19 08:32:04;;;;;;;22.40;13.50;;;;;;;2.17;95.43;101173.23;105809;1284;58269;-73
2022/12/19 08:34:31;;;;;;;22.20;13.40;;;;;;;2.17;96.08;101172.58;105788;1291;58227;-73
2022/12/19 08:36:58;;;;;;;21.90;13.90;;;;;;;2.19;95.89;101172.73;105678;1290;61354;-73
2022/12/19 08:39:24;;;;;;;24.10;14.70;;;;;;;2.22;95.97;101178.63;105705;1291;59869;-72
2022/12/19 08:41:51;;;;;;;20.00;12.10;;;;;;;2.23;96.23;101175.95;105691;1291;58214;-72
2022/12/19 08:44:17;;;;;;;19.00;12.50;;;;;;;2.23;96.56;101169.66;105754;1292;69812;-73
2022/12/19 08:46:44;;;;;;;21.70;14.10;;;;;;;2.26;96.37;101165.80;105674;1290;58545;-72
2022/12/19 08:49:16;;;;;;;20.80;13.20;;;;;;;2.27;96.61;101169.76;105706;1292;58910;-73
2022/12/19 08:51:42;;;;;;;20.90;13.20;;;;;;;2.28;96.88;101164.44;105779;1290;58844;-72
2022/12/19 08:54:09;;;;;;;21.30;13.60;;;;;;;2.30;97.09;101165.54;105571;1289;58932;-72
2022/12/19 08:56:37;;;;;;;21.10;13.40;;;;;;;2.32;96.92;101161.91;105700;1287;70858;-72
2022/12/19 08:59:12;;;;;;;19.00;12.10;;;;;;;2.34;97.11;101158.80;105745;1285;71515;-71
2022/12/19 09:01:41;;;;;;;20.30;11.30;;;;;;;2.35;97.22;101160.29;105586;1294;61209;-72
2022/12/19 09:04:07;;;;;;;19.80;12.00;;;;;;;2.39;97.14;101153.90;105781;1288;59032;-71
2022/12/19 09:06:55;;;;;;;18.10;11.50;;;;;;;2.42;97.05;101149.63;105761;1292;72322;-71
2022/12/19 09:09:21;;;;;;;18.30;11.70;;;;;;;2.47;97.24;101153.50;105139;1290;70503;-70
2022/12/19 09:11:48;;;;;;;17.80;12.10;;;;;;;2.50;97.07;101153.96;105693;1290;58266;-71
2022/12/19 09:14:14;;;;;;;18.70;12.40;;;;;;;2.55;97.35;101146.48;105651;1291;62215;-71
2022/12/19 09:16:47;;;;;;;16.40;10.50;;;;;;;2.58;97.25;101147.30;105750;1291;58758;-71
2022/12/19 09:19:15;;;;;;;16.50;11.20;;;;;;;2.59;97.53;101147.73;105667;1284;72670;-71
2022/12/19 09:21:42;;;;;;;18.80;11.70;;;;;;;2.61;97.71;101142.49;105683;1291;69955;-71
2022/12/19 09:24:09;;;;;;;17.50;11.20;;;;;;;2.63;98.13;101143.58;105666;1288;72889;-71
2022/12/19 09:26:38;;;;;;;16.50;10.30;;;;;;;2.67;98.08;101143.11;105641;1291;61663;-71
2022/12/19 09:29:05;;;;;;;16.50;10.70;;;;;;;2.70;97.88;101140.15;105693;1290;58872;-71
2022/12/19 09:31:47;;;;;;;14.10;9.40;;;;;;;2.72;97.98;101131.04;105582;1298;73484;-71
2022/12/19 09:34:23;;;;;;;14.50;9.00;;;;;;;2.73;98.45;101132.73;105640;1294;70126;-70
2022/12/19 09:37:00;;;;;;;15.30;10.00;;;;;;;2.77;98.64;101131.05;105680;1291;71562;-70
2022/12/19 09:39:26;;;;;;;16.20;10.30;;;;;;;2.81;98.67;101129.48;105713;1290;58269;-71
2022/12/19 09:42:21;;;;;;;13.30;8.90;;;;;;;2.86;98.46;101128.30;105677;1287;58305;-71
2022/12/19 09:45:10;;;;;;;11.20;7.60;;;;;;;2.91;98.35;101130.16;105739;1291;73866;-71
2022/12/19 09:47:48;;;;;;;12.50;8.60;;;;;;;2.93;98.56;101116.41;105694;1284;69193;-71
2022/12/19 09:50:30;;;;;;;11.70;7.70;;;;;;;3.03;98.29;101121.45;105739;1292;72872;-70
2022/12/19 09:53:06;;;;;;;12.80;8.50;;;;;;;3.07;98.34;101114.81;105725;1285;61006;-71
2022/12/19 09:55:36;;;;;;;11.70;7.80;;;;;;;3.15;98.29;101113.20;105738;1292;59057;-71
2022/12/19 09:58:11;;;;;;;11.30;7.60;;;;;;;3.17;98.36;101115.48;105685;1290;74167;-70
2022/12/19 10:00:47;;;;;;;10.90;7.30;;;;;;;3.19;98.54;101113.21;105682;1292;70846;-71
2022/12/19 10:03:31;;;;;;;11.80;8.00;;;;;;;3.24;98.57;101116.65;105654;1283;71712;-71
2022/12/19 10:06:23;;;;;;;11.20;7.10;;;;;;;3.29;98.63;101110.36;105694;1284;59217;-71
2022/12/19 10:09:18;;;;;;;10.80;7.50;;;;;;;3.33;98.52;101102.38;105727;1285;58473;-73
2022/12/19 10:12:29;;;;;;;11.20;8.30;;;;;;;3.36;98.63;101102.86;105735;1284;74104;-71
2022/12/19 10:15:41;;;;;;;11.80;7.90;;;;;;;3.40;98.68;101104.58;105698;1284;70195;-71
2022/12/19 10:18:28;;;;;;;11.00;7.70;;;;;;;3.41;98.73;101099.66;105706;1290;71966;-72
2022/12/19 10:21:10;;;;;;;11.20;8.20;;;;;;;3.43;98.79;101098.93;105688;1292;61353;-72
2022/12/19 10:23:51;;;;;;;12.00;7.90;;;;;;;3.44;98.81;101099.56;105642;1284;58948;-71
2022/12/19 10:26:22;;;;;;;11.50;8.20;;;;;;;3.45;99.07;101099.38;105731;1290;72605;-72
2022/12/19 10:29:38;;;;;;;11.50;7.90;;;;;;;3.43;99.53;101104.41;105712;1276;69788;-72
2022/12/19 10:32:45;;;;;;;12.20;7.90;;;;;;;3.41;99.78;101097.92;105793;1291;71355;-72
2022/12/19 10:35:17;;;;;;;11.60;8.30;;;;;;;3.41;99.98;101094.96;105798;1292;61327;-72
2022/12/19 10:37:55;;;;;;;12.50;8.60;;;;;;;3.40;99.97;101087.84;105704;1291;61590;-71
2022/12/19 10:40:35;;;;;;;12.80;9.00;;;;;;;3.39;100.00;101086.19;105688;1291;72093;-72
2022/12/19 10:43:12;;;;;;;12.60;9.00;;;;;;;3.40;100.00;101081.73;105757;1291;69360;-72
2022/12/19 10:45:53;;;;;;;13.70;9.40;;;;;;;3.43;100.00;101074.83;105803;1292;72030;-71
2022/12/19 10:48:21;;;;;;;16.00;9.40;;;;;;;3.46;100.00;101074.94;105714;1291;60002;-71
2022/12/19 10:50:56;;;;;;;13.20;9.30;;;;;;;3.52;99.96;101069.10;105735;1292;58913;-72
2022/12/19 10:53:28;;;;;;;13.50;9.30;;;;;;;3.56;99.94;101058.98;105592;1292;72623;-72
2022/12/19 10:56:01;;;;;;;12.80;8.80;;;;;;;3.60;99.77;101057.77;105723;1287;71166;-72
2022/12/19 10:58:34;;;;;;;13.60;9.60;;;;;;;3.64;99.76;101052.02;105821;1288;71127;-72
2022/12/19 11:01:08;;;;;;;13.80;9.60;;;;;;;3.72;99.41;101047.90;105722;1287;59860;-72
2022/12/19 11:03:37;;;;;;;13.00;8.70;;;;;;;3.79;98.83;101045.94;105732;1291;59032;-72
2022/12/19 11:06:05;;;;;;;14.40;9.90;;;;;;;3.85;98.65;101038.13;105715;1287;73982;-72
2022/12/19 11:08:35;;;;;;;13.50;9.20;;;;;;;3.93;98.36;101042.04;105731;1292;70131;-72
2022/12/19 11:11:04;;;;;;;13.80;9.80;;;;;;;3.98;98.00;101038.35;105680;1291;73577;-72
2022/12/19 11:13:51;;;;;;;13.80;9.70;;;;;;;4.02;97.62;101032.54;105691;1285;63743;-72
2022/12/19 11:16:37;;;;;;;13.80;9.90;;;;;;;4.09;97.14;101029.91;105722;1291;59911;-71
2022/12/19 11:19:27;;;;;;;14.20;10.20;;;;;;;4.15;96.80;101027.89;105768;1291;72310;-72
2022/12/19 11:22:35;;;;;;;14.70;10.40;;;;;;;4.18;96.50;101022.84;105731;1285;69762;-71
2022/12/19 11:25:30;;;;;;;16.40;10.10;;;;;;;4.25;96.18;101020.70;105756;1290;72278;-71
2022/12/19 11:28:19;;;;;;;13.40;9.80;;;;;;;4.31;95.95;101022.36;105666;1284;61192;-72
2022/12/19 11:31:17;;;;;;;15.50;10.80;;;;;;;4.37;95.54;101007.64;105756;1284;60971;-71
2022/12/19 11:34:12;;;;;;;15.20;10.20;;;;;;;4.45;95.43;101002.95;105726;1291;74020;-71
2022/12/19 11:37:06;;;;;;;15.20;11.00;;;;;;;4.49;95.01;101002.62;105689;1292;72075;-71
2022/12/19 11:39:43;;;;;;;16.50;10.70;;;;;;;4.55;94.60;101010.75;105702;1284;71911;-71
2022/12/19 11:42:32;;;;;;;15.50;11.20;;;;;;;4.62;94.40;101002.81;105634;1287;61188;-73
2022/12/19 11:45:01;;;;;;;15.80;10.60;;;;;;;4.63;94.10;101006.54;105702;1279;59141;-72